sensor_id;sensor_type;location;lat;lon;timestamp;pressure;altitude;pressure_sealevel;temperature;humidity
59789;BME280;47353;51.614;5.530;2023-03-16T00:02:24;101694.56;;;3.90;77.42
59789;BME280;47353;51.614;5.530;2023-03-16T00:04:49;101697.13;;;3.85;78.44
59789;BME280;47353;51.614;5.530;2023-03-16T00:07:16;101690.78;;;3.91;77.76
59789;BME280;47353;51.614;5.530;2023-03-16T00:09:42;101682.56;;;3.91;78.02
59789;BME280;47353;51.614;5.530;2023-03-16T00:12:15;101687.41;;;3.96;77.77
59789;BME280;47353;51.614;5.530;2023-03-16T00:14:46;101680.47;;;3.93;78.41
59789;BME280;47353;51.614;5.530;2023-03-16T00:17:14;101681.09;;;3.95;78.50
59789;BME280;47353;51.614;5.530;2023-03-16T00:19:52;101683.81;;;4.02;78.10
59789;BME280;47353;51.614;5.530;2023-03-16T00:22:20;101681.28;;;4.00;78.39
59789;BME280;47353;51.614;5.530;2023-03-16T00:24:45;101678.97;;;4.04;77.73
59789;BME280;47353;51.614;5.530;2023-03-16T00:27:12;101676.84;;;4.06;77.96
59789;BME280;47353;51.614;5.530;2023-03-16T00:29:44;101674.97;;;4.00;78.84
59789;BME280;47353;51.614;5.530;2023-03-16T00:32:18;101668.22;;;4.02;78.57
59789;BME280;47353;51.614;5.530;2023-03-16T00:34:45;101664.84;;;4.00;79.26
59789;BME280;47353;51.614;5.530;2023-03-16T00:37:13;101668.88;;;3.98;79.33
59789;BME280;47353;51.614;5.530;2023-03-16T00:39:43;101670.31;;;4.07;78.87
59789;BME280;47353;51.614;5.530;2023-03-16T00:42:10;101668.19;;;4.09;78.38
59789;BME280;47353;51.614;5.530;2023-03-16T00:44:36;101657.50;;;4.01;79.13
59789;BME280;47353;51.614;5.530;2023-03-16T00:47:05;101659.16;;;4.02;78.93
59789;BME280;47353;51.614;5.530;2023-03-16T00:49:31;101647.78;;;4.05;78.71
59789;BME280;47353;51.614;5.530;2023-03-16T00:52:03;101650.50;;;4.05;79.46
59789;BME280;47353;51.614;5.530;2023-03-16T00:54:30;101643.16;;;3.99;80.06
59789;BME280;47353;51.614;5.530;2023-03-16T00:56:57;101640.22;;;3.94;80.16
59789;BME280;47353;51.614;5.530;2023-03-16T00:59:23;101640.84;;;4.02;79.71
59789;BME280;47353;51.614;5.530;2023-03-16T01:01:51;101633.50;;;3.96;80.00
59789;BME280;47353;51.614;5.530;2023-03-16T01:04:16;101638.53;;;3.99;79.90
59789;BME280;47353;51.614;5.530;2023-03-16T01:06:43;101631.56;;;4.03;79.95
59789;BME280;47353;51.614;5.530;2023-03-16T01:09:09;101618.94;;;3.96;80.77
59789;BME280;47353;51.614;5.530;2023-03-16T01:11:34;101612.16;;;4.05;79.78
59789;BME280;47353;51.614;5.530;2023-03-16T01:14:00;101617.00;;;4.09;79.56
59789;BME280;47353;51.614;5.530;2023-03-16T01:16:25;101619.38;;;3.99;80.20
59789;BME280;47353;51.614;5.530;2023-03-16T01:18:51;101599.78;;;3.96;80.38
59789;BME280;47353;51.614;5.530;2023-03-16T01:21:18;101605.81;;;4.11;79.54
59789;BME280;47353;51.614;5.530;2023-03-16T01:23:44;101599.53;;;4.04;80.06
59789;BME280;47353;51.614;5.530;2023-03-16T01:26:10;101594.06;;;3.97;80.56
59789;BME280;47353;51.614;5.530;2023-03-16T01:28:35;101597.59;;;4.17;79.54
59789;BME280;47353;51.614;5.530;2023-03-16T01:31:06;101595.31;;;4.01;80.48
59789;BME280;47353;51.614;5.530;2023-03-16T01:33:32;101593.41;;;4.08;79.65
59789;BME280;47353;51.614;5.530;2023-03-16T01:36:10;101594.06;;;3.97;80.49
59789;BME280;47353;51.614;5.530;2023-03-16T01:38:36;101588.53;;;4.10;80.29
59789;BME280;47353;51.614;5.530;2023-03-16T01:41:02;101589.25;;;3.93;81.32
59789;BME280;47353;51.614;5.530;2023-03-16T01:43:29;101581.88;;;3.93;81.33
59789;BME280;47353;51.614;5.530;2023-03-16T01:51:41;101583.56;;;3.94;81.50
59789;BME280;47353;51.614;5.530;2023-03-16T01:54:15;101584.00;;;3.91;82.29
59789;BME280;47353;51.614;5.530;2023-03-16T01:59:31;101567.94;;;4.01;81.15
59789;BME280;47353;51.614;5.530;2023-03-16T02:01:57;101568.56;;;3.97;82.25
59789;BME280;47353;51.614;5.530;2023-03-16T02:07:05;101564.59;;;3.99;81.50
59789;BME280;47353;51.614;5.530;2023-03-16T02:09:32;101558.88;;;4.01;81.99
59789;BME280;47353;51.614;5.530;2023-03-16T02:11:59;101557.03;;;3.95;82.41
59789;BME280;47353;51.614;5.530;2023-03-16T02:14:25;101556.75;;;4.03;81.57
59789;BME280;47353;51.614;5.530;2023-03-16T02:16:51;101549.38;;;4.03;81.77
59789;BME280;47353;51.614;5.530;2023-03-16T02:22:30;101544.13;;;4.02;82.16
59789;BME280;47353;51.614;5.530;2023-03-16T02:25:00;101528.56;;;3.96;82.02
59789;BME280;47353;51.614;5.530;2023-03-16T02:28:09;101529.75;;;4.13;81.50
59789;BME280;47353;51.614;5.530;2023-03-16T02:30:37;101535.47;;;4.05;81.79
59789;BME280;47353;51.614;5.530;2023-03-16T02:33:03;101541.81;;;4.05;82.05
59789;BME280;47353;51.614;5.530;2023-03-16T02:35:31;101541.59;;;4.00;83.18
59789;BME280;47353;51.614;5.530;2023-03-16T02:37:57;101540.28;;;4.09;82.35
59789;BME280;47353;51.614;5.530;2023-03-16T02:40:23;101543.44;;;4.13;82.99
59789;BME280;47353;51.614;5.530;2023-03-16T02:43:03;101544.53;;;4.12;83.45
59789;BME280;47353;51.614;5.530;2023-03-16T02:45:46;101542.69;;;3.93;85.18
59789;BME280;47353;51.614;5.530;2023-03-16T02:48:26;101546.41;;;4.11;84.43
59789;BME280;47353;51.614;5.530;2023-03-16T02:50:53;101549.81;;;4.07;84.81
59789;BME280;47353;51.614;5.530;2023-03-16T02:53:20;101548.38;;;3.98;85.89
59789;BME280;47353;51.614;5.530;2023-03-16T02:55:46;101543.13;;;3.90;86.35
59789;BME280;47353;51.614;5.530;2023-03-16T02:58:13;101539.31;;;3.97;86.05
59789;BME280;47353;51.614;5.530;2023-03-16T03:00:38;101544.16;;;3.95;86.54
59789;BME280;47353;51.614;5.530;2023-03-16T03:03:05;101538.22;;;3.98;86.61
59789;BME280;47353;51.614;5.530;2023-03-16T03:05:33;101533.19;;;3.95;86.52
59789;BME280;47353;51.614;5.530;2023-03-16T03:07:59;101533.38;;;4.00;85.51
59789;BME280;47353;51.614;5.530;2023-03-16T03:10:25;101526.03;;;3.94;86.88
59789;BME280;47353;51.614;5.530;2023-03-16T03:12:50;101530.06;;;3.92;87.28
59789;BME280;47353;51.614;5.530;2023-03-16T03:15:16;101529.22;;;3.91;87.15
59789;BME280;47353;51.614;5.530;2023-03-16T03:17:42;101529.63;;;3.95;86.47
59789;BME280;47353;51.614;5.530;2023-03-16T03:20:08;101529.78;;;4.00;86.07
59789;BME280;47353;51.614;5.530;2023-03-16T03:22:40;101523.41;;;4.12;85.02
59789;BME280;47353;51.614;5.530;2023-03-16T03:25:06;101525.81;;;4.02;85.57
59789;BME280;47353;51.614;5.530;2023-03-16T03:27:33;101504.50;;;4.04;85.50
59789;BME280;47353;51.614;5.530;2023-03-16T03:29:58;101507.44;;;4.09;85.19
59789;BME280;47353;51.614;5.530;2023-03-16T03:32:23;101513.56;;;4.05;86.15
59789;BME280;47353;51.614;5.530;2023-03-16T03:34:49;101508.28;;;4.10;85.48
59789;BME280;47353;51.614;5.530;2023-03-16T03:37:15;101511.69;;;3.99;86.19
59789;BME280;47353;51.614;5.530;2023-03-16T03:39:40;101499.94;;;3.92;86.83
59789;BME280;47353;51.614;5.530;2023-03-16T03:42:06;101498.63;;;4.01;85.96
59789;BME280;47353;51.614;5.530;2023-03-16T03:44:31;101503.09;;;3.89;88.00
59789;BME280;47353;51.614;5.530;2023-03-16T03:46:59;101504.34;;;3.93;87.33
59789;BME280;47353;51.614;5.530;2023-03-16T03:49:24;101502.78;;;4.10;85.76
59789;BME280;47353;51.614;5.530;2023-03-16T03:51:50;101505.59;;;3.90;87.28
59789;BME280;47353;51.614;5.530;2023-03-16T03:54:16;101502.19;;;4.01;86.48
59789;BME280;47353;51.614;5.530;2023-03-16T03:56:41;101507.97;;;3.87;87.40
59789;BME280;47353;51.614;5.530;2023-03-16T03:59:07;101502.50;;;3.80;88.22
59789;BME280;47353;51.614;5.530;2023-03-16T04:01:32;101499.97;;;3.85;87.69
59789;BME280;47353;51.614;5.530;2023-03-16T04:03:57;101499.72;;;3.93;87.08
59789;BME280;47353;51.614;5.530;2023-03-16T04:06:23;101493.41;;;3.86;87.45
59789;BME280;47353;51.614;5.530;2023-03-16T04:08:48;101488.56;;;3.88;86.98
59789;BME280;47353;51.614;5.530;2023-03-16T04:11:15;101486.72;;;3.82;87.36
59789;BME280;47353;51.614;5.530;2023-03-16T04:13:40;101481.84;;;3.84;87.19
59789;BME280;47353;51.614;5.530;2023-03-16T04:16:06;101494.28;;;3.80;87.62
59789;BME280;47353;51.614;5.530;2023-03-16T04:18:32;101491.75;;;3.85;87.89
59789;BME280;47353;51.614;5.530;2023-03-16T04:21:06;101489.66;;;3.81;88.28
59789;BME280;47353;51.614;5.530;2023-03-16T04:23:32;101490.47;;;3.81;88.02
59789;BME280;47353;51.614;5.530;2023-03-16T04:25:58;101487.28;;;3.91;87.36
59789;BME280;47353;51.614;5.530;2023-03-16T04:28:24;101476.34;;;3.84;87.95
59789;BME280;47353;51.614;5.530;2023-03-16T04:30:54;101479.09;;;3.84;87.50
59789;BME280;47353;51.614;5.530;2023-03-16T04:33:20;101480.81;;;3.85;87.93
59789;BME280;47353;51.614;5.530;2023-03-16T04:35:46;101480.78;;;3.92;87.26
59789;BME280;47353;51.614;5.530;2023-03-16T04:38:12;101476.72;;;4.01;86.48
59789;BME280;47353;51.614;5.530;2023-03-16T04:40:38;101477.59;;;3.95;87.17
59789;BME280;47353;51.614;5.530;2023-03-16T04:43:03;101480.16;;;3.90;87.48
59789;BME280;47353;51.614;5.530;2023-03-16T04:45:28;101479.94;;;3.91;87.54
59789;BME280;47353;51.614;5.530;2023-03-16T04:47:54;101482.88;;;3.90;88.42
59789;BME280;47353;51.614;5.530;2023-03-16T04:50:19;101481.38;;;3.94;87.49
59789;BME280;47353;51.614;5.530;2023-03-16T04:52:44;101477.59;;;3.95;86.89
59789;BME280;47353;51.614;5.530;2023-03-16T04:55:10;101469.81;;;3.92;87.11
59789;BME280;47353;51.614;5.530;2023-03-16T04:57:36;101473.75;;;4.02;86.18
59789;BME280;47353;51.614;5.530;2023-03-16T05:00:02;101472.13;;;3.95;87.21
59789;BME280;47353;51.614;5.530;2023-03-16T05:02:34;101474.41;;;3.98;87.13
59789;BME280;47353;51.614;5.530;2023-03-16T05:04:59;101464.25;;;4.05;86.50
59789;BME280;47353;51.614;5.530;2023-03-16T05:07:25;101470.16;;;4.02;86.95
59789;BME280;47353;51.614;5.530;2023-03-16T05:09:50;101466.66;;;3.95;87.66
59789;BME280;47353;51.614;5.530;2023-03-16T05:12:16;101461.38;;;3.93;87.82
59789;BME280;47353;51.614;5.530;2023-03-16T05:14:41;101465.75;;;4.01;86.96
59789;BME280;47353;51.614;5.530;2023-03-16T05:17:06;101457.31;;;4.02;87.24
59789;BME280;47353;51.614;5.530;2023-03-16T05:19:32;101460.00;;;4.09;86.93
59789;BME280;47353;51.614;5.530;2023-03-16T05:21:57;101453.53;;;4.03;86.85
59789;BME280;47353;51.614;5.530;2023-03-16T05:24:23;101450.38;;;4.00;87.70
59789;BME280;47353;51.614;5.530;2023-03-16T05:26:48;101447.25;;;3.96;88.04
59789;BME280;47353;51.614;5.530;2023-03-16T05:29:14;101453.97;;;4.00;87.66
59789;BME280;47353;51.614;5.530;2023-03-16T05:31:39;101454.59;;;4.02;87.66
59789;BME280;47353;51.614;5.530;2023-03-16T05:34:04;101448.69;;;3.99;88.50
59789;BME280;47353;51.614;5.530;2023-03-16T05:36:30;101457.31;;;4.02;87.95
59789;BME280;47353;51.614;5.530;2023-03-16T05:38:55;101445.91;;;4.12;87.02
59789;BME280;47353;51.614;5.530;2023-03-16T05:41:21;101443.19;;;4.05;87.96
59789;BME280;47353;51.614;5.530;2023-03-16T05:43:47;101447.59;;;4.06;87.69
59789;BME280;47353;51.614;5.530;2023-03-16T05:46:13;101447.78;;;4.11;88.36
59789;BME280;47353;51.614;5.530;2023-03-16T05:48:38;101441.00;;;4.14;87.32
59789;BME280;47353;51.614;5.530;2023-03-16T05:51:04;101439.78;;;4.10;87.92
59789;BME280;47353;51.614;5.530;2023-03-16T05:53:33;101429.41;;;4.18;87.81
59789;BME280;47353;51.614;5.530;2023-03-16T05:56:00;101435.31;;;4.15;88.01
59789;BME280;47353;51.614;5.530;2023-03-16T05:58:26;101431.69;;;4.21;87.92
59789;BME280;47353;51.614;5.530;2023-03-16T06:00:51;101435.94;;;4.17;87.82
59789;BME280;47353;51.614;5.530;2023-03-16T06:03:19;101429.59;;;4.23;87.78
59789;BME280;47353;51.614;5.530;2023-03-16T06:05:46;101432.63;;;4.40;86.66
59789;BME280;47353;51.614;5.530;2023-03-16T06:08:11;101435.44;;;4.33;86.88
59789;BME280;47353;51.614;5.530;2023-03-16T06:10:37;101435.25;;;4.28;87.10
59789;BME280;47353;51.614;5.530;2023-03-16T06:13:02;101433.06;;;4.37;87.21
59789;BME280;47353;51.614;5.530;2023-03-16T06:15:27;101435.03;;;4.30;87.34
59789;BME280;47353;51.614;5.530;2023-03-16T06:17:55;101427.25;;;4.27;88.31
59789;BME280;47353;51.614;5.530;2023-03-16T06:20:21;101434.56;;;4.33;87.54
59789;BME280;47353;51.614;5.530;2023-03-16T06:22:46;101425.06;;;4.35;86.98
59789;BME280;47353;51.614;5.530;2023-03-16T06:25:13;101426.59;;;4.31;87.34
59789;BME280;47353;51.614;5.530;2023-03-16T06:27:39;101430.53;;;4.35;87.38
59789;BME280;47353;51.614;5.530;2023-03-16T06:30:05;101434.13;;;4.36;88.14
59789;BME280;47353;51.614;5.530;2023-03-16T06:32:33;101433.78;;;4.50;86.70
59789;BME280;47353;51.614;5.530;2023-03-16T06:34:59;101429.66;;;4.41;87.08
59789;BME280;47353;51.614;5.530;2023-03-16T06:37:26;101422.59;;;4.52;86.52
59789;BME280;47353;51.614;5.530;2023-03-16T06:39:52;101427.44;;;4.56;85.52
59789;BME280;47353;51.614;5.530;2023-03-16T06:42:18;101425.75;;;4.55;86.26
59789;BME280;47353;51.614;5.530;2023-03-16T06:44:43;101429.13;;;4.57;86.56
59789;BME280;47353;51.614;5.530;2023-03-16T06:47:09;101430.78;;;4.58;86.61
59789;BME280;47353;51.614;5.530;2023-03-16T06:49:34;101435.13;;;4.66;86.47
59789;BME280;47353;51.614;5.530;2023-03-16T06:52:00;101441.97;;;4.57;87.10
59789;BME280;47353;51.614;5.530;2023-03-16T06:54:27;101435.22;;;4.59;87.44
59789;BME280;47353;51.614;5.530;2023-03-16T06:56:53;101431.19;;;4.62;87.74
59789;BME280;47353;51.614;5.530;2023-03-16T06:59:18;101432.56;;;4.71;87.31
59789;BME280;47353;51.614;5.530;2023-03-16T07:01:43;101430.31;;;4.61;88.18
59789;BME280;47353;51.614;5.530;2023-03-16T07:04:09;101417.59;;;4.73;87.38
59789;BME280;47353;51.614;5.530;2023-03-16T07:06:36;101420.34;;;4.73;87.69
59789;BME280;47353;51.614;5.530;2023-03-16T07:09:02;101422.00;;;4.74;88.25
59789;BME280;47353;51.614;5.530;2023-03-16T07:11:29;101417.28;;;4.81;89.11
59789;BME280;47353;51.614;5.530;2023-03-16T07:13:54;101404.66;;;4.98;87.54
59789;BME280;47353;51.614;5.530;2023-03-16T07:16:20;101400.25;;;4.97;87.94
59789;BME280;47353;51.614;5.530;2023-03-16T07:18:46;101411.06;;;5.10;86.53
59789;BME280;47353;51.614;5.530;2023-03-16T07:21:11;101416.56;;;5.10;87.40
59789;BME280;47353;51.614;5.530;2023-03-16T07:23:36;101410.56;;;5.20;86.51
59789;BME280;47353;51.614;5.530;2023-03-16T07:26:02;101411.47;;;5.14;87.58
59789;BME280;47353;51.614;5.530;2023-03-16T07:28:27;101408.03;;;5.18;87.61
59789;BME280;47353;51.614;5.530;2023-03-16T07:30:54;101401.94;;;5.35;85.63
59789;BME280;47353;51.614;5.530;2023-03-16T07:33:19;101407.66;;;5.33;87.11
59789;BME280;47353;51.614;5.530;2023-03-16T07:35:45;101412.63;;;5.43;86.52
59789;BME280;47353;51.614;5.530;2023-03-16T07:38:10;101402.94;;;5.58;85.12
59789;BME280;47353;51.614;5.530;2023-03-16T07:40:38;101403.41;;;5.55;85.61
59789;BME280;47353;51.614;5.530;2023-03-16T07:43:04;101400.34;;;5.45;87.59
59789;BME280;47353;51.614;5.530;2023-03-16T07:45:29;101404.75;;;5.46;87.13
59789;BME280;47353;51.614;5.530;2023-03-16T07:47:55;101402.09;;;5.58;85.64
59789;BME280;47353;51.614;5.530;2023-03-16T07:50:21;101395.66;;;5.64;85.26
59789;BME280;47353;51.614;5.530;2023-03-16T07:52:46;101406.19;;;5.67;84.74
59789;BME280;47353;51.614;5.530;2023-03-16T07:55:12;101399.41;;;5.51;84.22
59789;BME280;47353;51.614;5.530;2023-03-16T07:57:38;101397.88;;;5.73;83.50
59789;BME280;47353;51.614;5.530;2023-03-16T08:00:06;101404.53;;;5.66;84.15
59789;BME280;47353;51.614;5.530;2023-03-16T08:02:32;101405.00;;;5.63;83.52
59789;BME280;47353;51.614;5.530;2023-03-16T08:05:00;101400.94;;;5.65;83.72
59789;BME280;47353;51.614;5.530;2023-03-16T08:07:26;101394.75;;;5.70;82.98
59789;BME280;47353;51.614;5.530;2023-03-16T08:09:51;101390.78;;;5.84;83.36
59789;BME280;47353;51.614;5.530;2023-03-16T08:12:17;101386.38;;;5.83;83.97
59789;BME280;47353;51.614;5.530;2023-03-16T08:14:42;101393.78;;;5.94;82.96
59789;BME280;47353;51.614;5.530;2023-03-16T08:17:11;101394.78;;;5.99;82.74
59789;BME280;47353;51.614;5.530;2023-03-16T08:19:37;101391.72;;;6.07;82.39
59789;BME280;47353;51.614;5.530;2023-03-16T08:22:03;101397.69;;;6.16;80.66
59789;BME280;47353;51.614;5.530;2023-03-16T08:24:30;101392.97;;;6.34;79.71
59789;BME280;47353;51.614;5.530;2023-03-16T08:26:56;101391.53;;;6.43;79.28
59789;BME280;47353;51.614;5.530;2023-03-16T08:29:22;101393.72;;;6.53;78.22
59789;BME280;47353;51.614;5.530;2023-03-16T08:31:49;101394.66;;;6.47;79.67
59789;BME280;47353;51.614;5.530;2023-03-16T08:34:14;101403.38;;;6.44;79.34
59789;BME280;47353;51.614;5.530;2023-03-16T08:36:40;101405.06;;;6.45;79.30
59789;BME280;47353;51.614;5.530;2023-03-16T08:39:08;101404.72;;;6.53;77.33
59789;BME280;47353;51.614;5.530;2023-03-16T08:41:33;101407.00;;;6.56;77.61
59789;BME280;47353;51.614;5.530;2023-03-16T08:43:59;101398.78;;;6.67;76.66
59789;BME280;47353;51.614;5.530;2023-03-16T08:46:24;101403.19;;;6.68;76.16
59789;BME280;47353;51.614;5.530;2023-03-16T08:48:50;101410.34;;;6.69;78.56
59789;BME280;47353;51.614;5.530;2023-03-16T08:51:17;101404.88;;;6.81;76.61
59789;BME280;47353;51.614;5.530;2023-03-16T08:53:43;101398.16;;;6.89;76.30
59789;BME280;47353;51.614;5.530;2023-03-16T08:56:11;101396.13;;;7.07;75.86
59789;BME280;47353;51.614;5.530;2023-03-16T08:58:39;101397.22;;;7.06;74.42
59789;BME280;47353;51.614;5.530;2023-03-16T09:01:06;101399.72;;;7.08;74.94
59789;BME280;47353;51.614;5.530;2023-03-16T09:03:34;101386.31;;;7.23;73.42
59789;BME280;47353;51.614;5.530;2023-03-16T09:06:04;101383.53;;;7.23;73.73
59789;BME280;47353;51.614;5.530;2023-03-16T09:08:31;101380.31;;;7.26;73.70
59789;BME280;47353;51.614;5.530;2023-03-16T09:13:26;101377.56;;;7.26;74.00
59789;BME280;47353;51.614;5.530;2023-03-16T09:15:51;101378.50;;;7.31;73.35
59789;BME280;47353;51.614;5.530;2023-03-16T09:18:17;101375.38;;;7.39;72.34
59789;BME280;47353;51.614;5.530;2023-03-16T09:20:43;101375.91;;;7.64;70.16
59789;BME280;47353;51.614;5.530;2023-03-16T09:23:12;101374.72;;;7.60;71.68
59789;BME280;47353;51.614;5.530;2023-03-16T09:25:38;101379.34;;;7.71;71.11
59789;BME280;47353;51.614;5.530;2023-03-16T09:28:04;101374.81;;;7.93;71.12
59789;BME280;47353;51.614;5.530;2023-03-16T09:30:29;101377.34;;;8.11;69.33
59789;BME280;47353;51.614;5.530;2023-03-16T09:32:54;101366.72;;;8.31;68.50
59789;BME280;47353;51.614;5.530;2023-03-16T09:35:20;101370.41;;;8.54;67.84
59789;BME280;47353;51.614;5.530;2023-03-16T09:37:46;101358.28;;;8.88;67.76
59789;BME280;47353;51.614;5.530;2023-03-16T09:40:27;101360.56;;;9.12;66.42
59789;BME280;47353;51.614;5.530;2023-03-16T09:46:06;101369.59;;;9.46;65.00
59789;BME280;47353;51.614;5.530;2023-03-16T09:48:37;101374.75;;;9.21;62.37
59789;BME280;47353;51.614;5.530;2023-03-16T09:51:05;101365.59;;;9.37;62.58
59789;BME280;47353;51.614;5.530;2023-03-16T09:53:41;101366.00;;;9.45;62.82
59789;BME280;47353;51.614;5.530;2023-03-16T09:56:11;101369.22;;;9.37;61.98
59789;BME280;47353;51.614;5.530;2023-03-16T09:58:38;101353.88;;;9.94;62.45
59789;BME280;47353;51.614;5.530;2023-03-16T10:01:21;101358.31;;;10.49;60.90
59789;BME280;47353;51.614;5.530;2023-03-16T10:04:10;101360.00;;;10.91;56.81
59789;BME280;47353;51.614;5.530;2023-03-16T10:07:11;101334.97;;;11.85;56.72
59789;BME280;47353;51.614;5.530;2023-03-16T10:10:34;101345.31;;;12.29;52.55
59789;BME280;47353;51.614;5.530;2023-03-16T10:12:38;101350.59;;;12.21;52.50
59789;BME280;47353;51.614;5.530;2023-03-16T10:15:09;101342.00;;;12.22;50.29
59789;BME280;47353;51.614;5.530;2023-03-16T10:17:59;101332.81;;;12.07;51.63
59789;BME280;47353;51.614;5.530;2023-03-16T10:20:31;101330.47;;;13.49;49.84
59789;BME280;47353;51.614;5.530;2023-03-16T10:22:58;101327.25;;;14.63;44.90
59789;BME280;47353;51.614;5.530;2023-03-16T10:27:57;101337.78;;;14.71;42.64
59789;BME280;47353;51.614;5.530;2023-03-16T10:30:27;101325.72;;;15.04;42.83
59789;BME280;47353;51.614;5.530;2023-03-16T10:32:55;101333.47;;;15.41;41.71
59789;BME280;47353;51.614;5.530;2023-03-16T10:35:59;101325.66;;;15.38;41.57
59789;BME280;47353;51.614;5.530;2023-03-16T10:38:33;101324.25;;;16.01;40.81
59789;BME280;47353;51.614;5.530;2023-03-16T10:41:26;101327.97;;;16.52;39.60
59789;BME280;47353;51.614;5.530;2023-03-16T10:43:57;101326.53;;;15.99;38.53
59789;BME280;47353;51.614;5.530;2023-03-16T10:46:25;101326.59;;;15.94;38.89
59789;BME280;47353;51.614;5.530;2023-03-16T10:48:59;101316.13;;;16.74;37.92
59789;BME280;47353;51.614;5.530;2023-03-16T10:51:30;101318.72;;;17.16;37.18
59789;BME280;47353;51.614;5.530;2023-03-16T10:54:46;101326.28;;;17.15;35.52
59789;BME280;47353;51.614;5.530;2023-03-16T10:56:50;101320.81;;;17.37;35.64
59789;BME280;47353;51.614;5.530;2023-03-16T11:01:54;101305.56;;;16.71;35.70
59789;BME280;47353;51.614;5.530;2023-03-16T11:04:19;101308.94;;;16.35;36.80
59789;BME280;47353;51.614;5.530;2023-03-16T11:06:55;101313.94;;;16.20;37.93
59789;BME280;47353;51.614;5.530;2023-03-16T11:09:30;101304.19;;;15.33;37.59
59789;BME280;47353;51.614;5.530;2023-03-16T11:11:58;101297.56;;;14.48;39.33
59789;BME280;47353;51.614;5.530;2023-03-16T11:14:26;101290.50;;;14.27;39.94
59789;BME280;47353;51.614;5.530;2023-03-16T11:17:11;101289.34;;;14.33;41.04
59789;BME280;47353;51.614;5.530;2023-03-16T11:19:50;101280.50;;;14.21;40.95
59789;BME280;47353;51.614;5.530;2023-03-16T11:22:20;101269.84;;;13.95;41.25
59789;BME280;47353;51.614;5.530;2023-03-16T11:25:05;101278.03;;;14.15;40.22
59789;BME280;47353;51.614;5.530;2023-03-16T11:32:51;101272.47;;;13.71;42.46
59789;BME280;47353;51.614;5.530;2023-03-16T11:35:38;101268.84;;;13.76;42.15
59789;BME280;47353;51.614;5.530;2023-03-16T11:38:13;101255.91;;;13.95;41.13
59789;BME280;47353;51.614;5.530;2023-03-16T11:40:54;101245.47;;;14.15;41.57
59789;BME280;47353;51.614;5.530;2023-03-16T11:46:33;101241.38;;;14.41;41.43
59789;BME280;47353;51.614;5.530;2023-03-16T11:57:51;101226.47;;;14.22;40.41
59789;BME280;47353;51.614;5.530;2023-03-16T12:00:50;101227.28;;;14.56;40.87
59789;BME280;47353;51.614;5.530;2023-03-16T12:11:09;101213.78;;;15.76;39.48
59789;BME280;47353;51.614;5.530;2023-03-16T12:13:57;101215.75;;;16.13;37.60
59789;BME280;47353;51.614;5.530;2023-03-16T12:19:13;101208.25;;;17.40;36.26
59789;BME280;47353;51.614;5.530;2023-03-16T12:21:43;101193.41;;;18.11;33.46
59789;BME280;47353;51.614;5.530;2023-03-16T12:24:19;101196.56;;;18.93;32.34
59789;BME280;47353;51.614;5.530;2023-03-16T12:26:48;101187.38;;;19.65;30.79
59789;BME280;47353;51.614;5.530;2023-03-16T12:29:28;101190.63;;;20.61;30.54
59789;BME280;47353;51.614;5.530;2023-03-16T12:32:20;101212.84;;;20.92;28.21
59789;BME280;47353;51.614;5.530;2023-03-16T12:34:58;101185.53;;;20.38;28.64
59789;BME280;47353;51.614;5.530;2023-03-16T12:42:38;101173.13;;;19.45;29.18
59789;BME280;47353;51.614;5.530;2023-03-16T12:45:32;101173.13;;;18.89;28.85
59789;BME280;47353;51.614;5.530;2023-03-16T12:50:33;101164.25;;;18.65;28.72
59789;BME280;47353;51.614;5.530;2023-03-16T12:52:58;101152.06;;;19.08;28.71
59789;BME280;47353;51.614;5.530;2023-03-16T12:55:25;101140.47;;;19.66;27.40
59789;BME280;47353;51.614;5.530;2023-03-16T12:57:59;101144.91;;;20.01;27.86
59789;BME280;47353;51.614;5.530;2023-03-16T13:00:38;101130.03;;;19.58;27.75
59789;BME280;47353;51.614;5.530;2023-03-16T13:03:12;101123.59;;;19.83;27.58
59789;BME280;47353;51.614;5.530;2023-03-16T13:05:45;101128.81;;;19.25;27.83
59789;BME280;47353;51.614;5.530;2023-03-16T13:08:15;101128.03;;;19.33;28.66
59789;BME280;47353;51.614;5.530;2023-03-16T13:10:42;101125.22;;;19.33;27.93
59789;BME280;47353;51.614;5.530;2023-03-16T13:13:23;101118.00;;;19.66;27.53
59789;BME280;47353;51.614;5.530;2023-03-16T13:16:03;101110.34;;;20.18;27.70
59789;BME280;47353;51.614;5.530;2023-03-16T13:18:41;101111.72;;;19.52;27.64
59789;BME280;47353;51.614;5.530;2023-03-16T13:21:21;101105.75;;;19.53;28.00
59789;BME280;47353;51.614;5.530;2023-03-16T13:23:52;101113.09;;;19.07;27.51
59789;BME280;47353;51.614;5.530;2023-03-16T13:26:43;101101.66;;;18.78;28.80
59789;BME280;47353;51.614;5.530;2023-03-16T13:29:25;101099.22;;;18.93;28.74
59789;BME280;47353;51.614;5.530;2023-03-16T13:31:56;101097.53;;;18.75;28.96
59789;BME280;47353;51.614;5.530;2023-03-16T13:34:28;101103.56;;;19.16;29.04
59789;BME280;47353;51.614;5.530;2023-03-16T13:36:56;101082.44;;;19.96;26.89
59789;BME280;47353;51.614;5.530;2023-03-16T13:39:27;101094.16;;;20.06;27.20
59789;BME280;47353;51.614;5.530;2023-03-16T13:42:11;101077.66;;;19.79;26.79
59789;BME280;47353;51.614;5.530;2023-03-16T13:44:39;101074.47;;;19.98;26.86
59789;BME280;47353;51.614;5.530;2023-03-16T13:47:06;101072.97;;;20.09;26.66
59789;BME280;47353;51.614;5.530;2023-03-16T13:49:32;101072.44;;;20.24;25.98
59789;BME280;47353;51.614;5.530;2023-03-16T13:51:58;101067.53;;;20.58;26.36
59789;BME280;47353;51.614;5.530;2023-03-16T13:54:25;101059.69;;;20.35;26.69
59789;BME280;47353;51.614;5.530;2023-03-16T13:56:55;101052.53;;;19.82;26.80
59789;BME280;47353;51.614;5.530;2023-03-16T13:59:21;101049.28;;;19.38;26.55
59789;BME280;47353;51.614;5.530;2023-03-16T14:01:47;101052.69;;;18.92;27.81
59789;BME280;47353;51.614;5.530;2023-03-16T14:04:14;101039.50;;;19.01;28.14
59789;BME280;47353;51.614;5.530;2023-03-16T14:06:52;101040.31;;;19.78;27.83
59789;BME280;47353;51.614;5.530;2023-03-16T14:09:21;101046.47;;;19.55;26.73